Falls International Airport
KINL : now visible

Airfield :











YOU CAN JOIN US ON...

 
LOGIN :

Register | Disclaimer

   EN    FR    IT 

 









Legend :    VFR   Marginal VFR   IFR   Intensive IFR   Very Intensive IFR
Visi :
Ceiling :
>= 8 km
>= 3000ft
5 to 8 km
1000 to 3000 ft
1500m to 5 km
500 to 1000 ft
800 to 1500m
200 to 500 ft
< 800m
< 200 ft
Symbols :   Thunderstorms  Fog  Heavy snow  Heavy precipitations  Wind > 20 kt






- Airport Elevation : 1185 ft
- IATA code : INL


KINL - Falls International

CURRENT METAR :
  • 100055Z AUTO 28005KT 10SM FEW050 22/13 A2979 RMK AO2 SLP087 T02220133

EXPIRED METARs :
  • 092355Z AUTO 28010KT 10SM CLR 23/12 A2978 RMK AO2 SLP081 T02330122 10278 20233 53013
  • 092255Z AUTO 27010G21KT 10SM SCT049 24/13 A2975 RMK AO2 SLP073 T02390133

TAF KINL
Valid from the 10 at 00:00 until the 11 at 00:00 UTC


092333Z 1000/1024 26009G17KT P6SM SCT060
FM101700 30010G17KT P6SM SCT060
KZMP FIR / North America



MET'MAP, your aeronautical weather chart ! - Copyright ORBIFLY December 2007 - Disclaimer

ORBIFLY MET'MAP TEAM :

Programming & Development : Alexandra Zaïnal
Concept & original design : Baudouin d'Aumeries
Assistance for programming : Marc-Olivier Méhu
Technical & hardware support : Manuel Goepfert

Contact : metmap@orbifly.com




SOURCES & CREDITS :

   NOAA       Earth
Advisory